< < Back
Terminal Aerodrome Forecast


Current Version              Previous Versions:   1  2  3  4  5  6  7  8  9  

Terminal Aerodrome Forecast

405
FTUS42 KGSP 050806 AAA
TAFGSP
TAF AMD
KGSP 050806Z 0508/0606 01004KT P6SM SCT040 BKN100
     FM051000 05009KT P6SM OVC015
     FM051500 05009KT P6SM BKN025
     FM051700 05008KT P6SM BKN045 PROB30 0517/0523 4SM TSRA BKN040CB
     FM052300 05007KT P6SM BKN045 PROB30 0523/0602 4SM TSRA BKN040CB
     FM060200 04006KT P6SM BKN045=



Latest METAR

594
SAUS70 KWBC 051556
MTRGSP
METAR KGSP 051553Z 03007KT 8SM BKN017 OVC023 25/21 A3019 RMK AO2 SLP211
T02500206


USA.gov is the U.S. government's official web portal to all federal, state and local government web resources and services.